sensor_id;sensor_type;location;lat;lon;timestamp;P1;durP1;ratioP1;P2;durP2;ratioP2
54919;SDS011;63804;53.120;8.764;2022-10-19T00:01:05;11.50;;;2.13;;
54919;SDS011;63804;53.120;8.764;2022-10-19T00:03:31;9.57;;;2.30;;
54919;SDS011;63804;53.120;8.764;2022-10-19T00:05:59;9.57;;;2.42;;
54919;SDS011;63804;53.120;8.764;2022-10-19T00:08:24;14.70;;;2.10;;
54919;SDS011;63804;53.120;8.764;2022-10-19T00:10:50;9.70;;;2.30;;
54919;SDS011;63804;53.120;8.764;2022-10-19T00:13:16;12.32;;;2.50;;
54919;SDS011;63804;53.120;8.764;2022-10-19T00:15:41;8.40;;;2.10;;
54919;SDS011;63804;53.120;8.764;2022-10-19T00:18:07;8.88;;;1.90;;
54919;SDS011;63804;53.120;8.764;2022-10-19T00:20:33;9.82;;;2.10;;
54919;SDS011;63804;53.120;8.764;2022-10-19T00:23:00;10.75;;;2.38;;
54919;SDS011;63804;53.120;8.764;2022-10-19T00:25:26;10.13;;;2.10;;
54919;SDS011;63804;53.120;8.764;2022-10-19T00:27:52;11.13;;;2.45;;
54919;SDS011;63804;53.120;8.764;2022-10-19T00:30:17;11.65;;;2.50;;
54919;SDS011;63804;53.120;8.764;2022-10-19T00:32:43;15.23;;;2.65;;
54919;SDS011;63804;53.120;8.764;2022-10-19T00:35:08;13.23;;;2.65;;
54919;SDS011;63804;53.120;8.764;2022-10-19T00:37:34;11.82;;;3.10;;
54919;SDS011;63804;53.120;8.764;2022-10-19T00:39:59;13.20;;;3.60;;
54919;SDS011;63804;53.120;8.764;2022-10-19T00:42:25;10.55;;;2.72;;
54919;SDS011;63804;53.120;8.764;2022-10-19T00:47:16;11.98;;;2.80;;
54919;SDS011;63804;53.120;8.764;2022-10-19T00:49:45;11.00;;;2.60;;
54919;SDS011;63804;53.120;8.764;2022-10-19T00:52:15;11.07;;;2.50;;
54919;SDS011;63804;53.120;8.764;2022-10-19T00:54:45;9.00;;;2.25;;
54919;SDS011;63804;53.120;8.764;2022-10-19T00:57:12;9.18;;;2.47;;
54919;SDS011;63804;53.120;8.764;2022-10-19T00:59:38;12.27;;;2.13;;
54919;SDS011;63804;53.120;8.764;2022-10-19T01:02:07;10.90;;;2.55;;
54919;SDS011;63804;53.120;8.764;2022-10-19T01:04:33;13.00;;;2.28;;
54919;SDS011;63804;53.120;8.764;2022-10-19T01:07:02;11.75;;;2.70;;
54919;SDS011;63804;53.120;8.764;2022-10-19T01:09:29;9.27;;;2.00;;
54919;SDS011;63804;53.120;8.764;2022-10-19T01:24:49;11.05;;;2.35;;
54919;SDS011;63804;53.120;8.764;2022-10-19T01:27:27;13.18;;;2.50;;
54919;SDS011;63804;53.120;8.764;2022-10-19T01:30:02;9.75;;;2.63;;
54919;SDS011;63804;53.120;8.764;2022-10-19T01:37:49;12.20;;;3.00;;
54919;SDS011;63804;53.120;8.764;2022-10-19T01:40:24;17.80;;;3.35;;
54919;SDS011;63804;53.120;8.764;2022-10-19T01:43:01;14.10;;;2.72;;
54919;SDS011;63804;53.120;8.764;2022-10-19T01:48:37;9.10;;;2.22;;
54919;SDS011;63804;53.120;8.764;2022-10-19T01:51:16;10.13;;;2.13;;
54919;SDS011;63804;53.120;8.764;2022-10-19T01:53:46;10.45;;;2.50;;
54919;SDS011;63804;53.120;8.764;2022-10-19T01:56:17;10.15;;;2.38;;
54919;SDS011;63804;53.120;8.764;2022-10-19T01:58:45;6.22;;;2.15;;
54919;SDS011;63804;53.120;8.764;2022-10-19T02:01:14;11.27;;;2.58;;
54919;SDS011;63804;53.120;8.764;2022-10-19T02:03:42;11.00;;;2.58;;
54919;SDS011;63804;53.120;8.764;2022-10-19T02:06:08;11.20;;;2.40;;
54919;SDS011;63804;53.120;8.764;2022-10-19T02:08:37;12.45;;;2.28;;
54919;SDS011;63804;53.120;8.764;2022-10-19T02:11:09;9.05;;;2.20;;
54919;SDS011;63804;53.120;8.764;2022-10-19T02:13:35;11.00;;;2.38;;
54919;SDS011;63804;53.120;8.764;2022-10-19T02:16:04;14.07;;;2.85;;
54919;SDS011;63804;53.120;8.764;2022-10-19T02:18:35;9.38;;;2.58;;
54919;SDS011;63804;53.120;8.764;2022-10-19T02:21:04;8.70;;;1.80;;
54919;SDS011;63804;53.120;8.764;2022-10-19T02:23:31;12.60;;;2.42;;
54919;SDS011;63804;53.120;8.764;2022-10-19T02:25:57;11.45;;;2.30;;
54919;SDS011;63804;53.120;8.764;2022-10-19T02:28:23;9.70;;;2.10;;
54919;SDS011;63804;53.120;8.764;2022-10-19T02:30:50;8.77;;;2.20;;
54919;SDS011;63804;53.120;8.764;2022-10-19T02:33:15;11.00;;;2.05;;
54919;SDS011;63804;53.120;8.764;2022-10-19T02:35:41;8.93;;;2.00;;
54919;SDS011;63804;53.120;8.764;2022-10-19T02:38:08;8.85;;;1.67;;
54919;SDS011;63804;53.120;8.764;2022-10-19T02:40:37;10.63;;;1.77;;
54919;SDS011;63804;53.120;8.764;2022-10-19T02:43:09;8.70;;;1.65;;
54919;SDS011;63804;53.120;8.764;2022-10-19T02:46:22;5.25;;;1.40;;
54919;SDS011;63804;53.120;8.764;2022-10-19T02:48:45;4.63;;;1.10;;
54919;SDS011;63804;53.120;8.764;2022-10-19T02:51:31;4.93;;;1.30;;
54919;SDS011;63804;53.120;8.764;2022-10-19T02:54:01;12.60;;;1.77;;
54919;SDS011;63804;53.120;8.764;2022-10-19T02:56:28;6.63;;;1.25;;
54919;SDS011;63804;53.120;8.764;2022-10-19T02:58:53;8.90;;;1.58;;
54919;SDS011;63804;53.120;8.764;2022-10-19T03:01:19;6.75;;;1.40;;
54919;SDS011;63804;53.120;8.764;2022-10-19T03:03:45;8.73;;;1.63;;
54919;SDS011;63804;53.120;8.764;2022-10-19T03:06:11;8.52;;;1.38;;
54919;SDS011;63804;53.120;8.764;2022-10-19T03:08:37;5.22;;;1.13;;
54919;SDS011;63804;53.120;8.764;2022-10-19T03:11:03;9.88;;;1.50;;
54919;SDS011;63804;53.120;8.764;2022-10-19T03:13:31;9.73;;;1.60;;
54919;SDS011;63804;53.120;8.764;2022-10-19T03:15:56;9.70;;;1.60;;
54919;SDS011;63804;53.120;8.764;2022-10-19T03:18:22;5.28;;;1.20;;
54919;SDS011;63804;53.120;8.764;2022-10-19T03:20:47;6.88;;;1.63;;
54919;SDS011;63804;53.120;8.764;2022-10-19T03:23:13;11.63;;;1.75;;
54919;SDS011;63804;53.120;8.764;2022-10-19T03:25:38;7.72;;;1.60;;
54919;SDS011;63804;53.120;8.764;2022-10-19T03:28:04;8.38;;;1.30;;
54919;SDS011;63804;53.120;8.764;2022-10-19T03:30:29;6.03;;;1.30;;
54919;SDS011;63804;53.120;8.764;2022-10-19T03:32:55;8.57;;;1.33;;
54919;SDS011;63804;53.120;8.764;2022-10-19T03:35:20;13.02;;;1.52;;
54919;SDS011;63804;53.120;8.764;2022-10-19T03:37:46;9.23;;;1.23;;
54919;SDS011;63804;53.120;8.764;2022-10-19T03:40:12;12.30;;;1.80;;
54919;SDS011;63804;53.120;8.764;2022-10-19T03:42:37;7.22;;;1.30;;
54919;SDS011;63804;53.120;8.764;2022-10-19T03:45:03;10.18;;;1.20;;
54919;SDS011;63804;53.120;8.764;2022-10-19T03:47:28;12.75;;;1.90;;
54919;SDS011;63804;53.120;8.764;2022-10-19T03:49:54;8.10;;;1.40;;
54919;SDS011;63804;53.120;8.764;2022-10-19T03:52:20;10.48;;;1.60;;
54919;SDS011;63804;53.120;8.764;2022-10-19T03:54:48;8.88;;;1.30;;
54919;SDS011;63804;53.120;8.764;2022-10-19T03:57:14;9.65;;;1.73;;
54919;SDS011;63804;53.120;8.764;2022-10-19T03:59:40;11.13;;;1.65;;
54919;SDS011;63804;53.120;8.764;2022-10-19T04:02:06;10.38;;;1.70;;
54919;SDS011;63804;53.120;8.764;2022-10-19T04:04:32;15.20;;;1.40;;
54919;SDS011;63804;53.120;8.764;2022-10-19T04:06:57;10.35;;;1.52;;
54919;SDS011;63804;53.120;8.764;2022-10-19T04:09:23;8.95;;;1.55;;
54919;SDS011;63804;53.120;8.764;2022-10-19T04:11:48;9.85;;;1.60;;
54919;SDS011;63804;53.120;8.764;2022-10-19T04:14:15;13.07;;;1.90;;
54919;SDS011;63804;53.120;8.764;2022-10-19T04:16:42;7.82;;;1.50;;
54919;SDS011;63804;53.120;8.764;2022-10-19T04:19:08;9.10;;;1.65;;
54919;SDS011;63804;53.120;8.764;2022-10-19T04:21:38;12.23;;;1.60;;
54919;SDS011;63804;53.120;8.764;2022-10-19T04:24:12;10.05;;;1.85;;
54919;SDS011;63804;53.120;8.764;2022-10-19T04:29:09;8.95;;;1.73;;
54919;SDS011;63804;53.120;8.764;2022-10-19T04:31:35;10.88;;;2.00;;
54919;SDS011;63804;53.120;8.764;2022-10-19T04:34:01;11.95;;;1.63;;
54919;SDS011;63804;53.120;8.764;2022-10-19T04:36:27;10.52;;;1.50;;
54919;SDS011;63804;53.120;8.764;2022-10-19T04:38:53;11.57;;;1.77;;
54919;SDS011;63804;53.120;8.764;2022-10-19T04:41:19;10.43;;;1.90;;
54919;SDS011;63804;53.120;8.764;2022-10-19T04:43:45;12.70;;;1.83;;
54919;SDS011;63804;53.120;8.764;2022-10-19T04:46:16;8.90;;;1.50;;
54919;SDS011;63804;53.120;8.764;2022-10-19T04:48:44;12.68;;;1.55;;
54919;SDS011;63804;53.120;8.764;2022-10-19T04:51:11;12.27;;;1.73;;
54919;SDS011;63804;53.120;8.764;2022-10-19T04:53:38;11.02;;;1.50;;
54919;SDS011;63804;53.120;8.764;2022-10-19T04:56:05;12.00;;;1.98;;
54919;SDS011;63804;53.120;8.764;2022-10-19T04:58:32;7.53;;;1.20;;
54919;SDS011;63804;53.120;8.764;2022-10-19T05:00:58;9.70;;;1.83;;
54919;SDS011;63804;53.120;8.764;2022-10-19T05:03:24;8.82;;;1.38;;
54919;SDS011;63804;53.120;8.764;2022-10-19T05:05:49;10.27;;;1.35;;
54919;SDS011;63804;53.120;8.764;2022-10-19T05:08:15;14.77;;;1.80;;
54919;SDS011;63804;53.120;8.764;2022-10-19T05:10:41;7.22;;;1.25;;
54919;SDS011;63804;53.120;8.764;2022-10-19T05:13:06;6.88;;;1.33;;
54919;SDS011;63804;53.120;8.764;2022-10-19T05:15:32;11.23;;;2.13;;
54919;SDS011;63804;53.120;8.764;2022-10-19T05:17:57;11.77;;;1.42;;
54919;SDS011;63804;53.120;8.764;2022-10-19T05:20:23;10.35;;;1.40;;
54919;SDS011;63804;53.120;8.764;2022-10-19T05:22:49;9.23;;;1.02;;
54919;SDS011;63804;53.120;8.764;2022-10-19T05:25:15;10.90;;;1.40;;
54919;SDS011;63804;53.120;8.764;2022-10-19T05:27:41;12.50;;;1.95;;
54919;SDS011;63804;53.120;8.764;2022-10-19T05:30:06;6.95;;;1.48;;
54919;SDS011;63804;53.120;8.764;2022-10-19T05:32:33;11.13;;;1.40;;
54919;SDS011;63804;53.120;8.764;2022-10-19T05:34:58;12.10;;;1.48;;
54919;SDS011;63804;53.120;8.764;2022-10-19T05:37:24;11.98;;;1.40;;
54919;SDS011;63804;53.120;8.764;2022-10-19T05:39:50;10.73;;;1.50;;
54919;SDS011;63804;53.120;8.764;2022-10-19T05:42:16;7.65;;;1.50;;
54919;SDS011;63804;53.120;8.764;2022-10-19T05:44:41;6.82;;;1.50;;
54919;SDS011;63804;53.120;8.764;2022-10-19T05:47:07;7.28;;;1.20;;
54919;SDS011;63804;53.120;8.764;2022-10-19T05:49:33;7.45;;;1.05;;
54919;SDS011;63804;53.120;8.764;2022-10-19T05:51:58;7.97;;;1.50;;
54919;SDS011;63804;53.120;8.764;2022-10-19T05:54:24;11.50;;;1.33;;
54919;SDS011;63804;53.120;8.764;2022-10-19T05:56:49;5.65;;;1.00;;
54919;SDS011;63804;53.120;8.764;2022-10-19T05:59:16;10.15;;;1.13;;
54919;SDS011;63804;53.120;8.764;2022-10-19T06:01:44;9.13;;;1.38;;
54919;SDS011;63804;53.120;8.764;2022-10-19T06:04:10;8.55;;;0.90;;
54919;SDS011;63804;53.120;8.764;2022-10-19T06:06:38;9.35;;;1.27;;
54919;SDS011;63804;53.120;8.764;2022-10-19T06:09:04;8.68;;;1.27;;
54919;SDS011;63804;53.120;8.764;2022-10-19T06:11:31;8.57;;;1.42;;
54919;SDS011;63804;53.120;8.764;2022-10-19T06:13:59;12.98;;;1.48;;
54919;SDS011;63804;53.120;8.764;2022-10-19T06:16:28;6.20;;;1.20;;
54919;SDS011;63804;53.120;8.764;2022-10-19T06:18:54;7.65;;;1.35;;
54919;SDS011;63804;53.120;8.764;2022-10-19T06:21:21;6.90;;;1.50;;
54919;SDS011;63804;53.120;8.764;2022-10-19T06:23:52;6.25;;;1.17;;
54919;SDS011;63804;53.120;8.764;2022-10-19T06:26:20;5.43;;;1.05;;
54919;SDS011;63804;53.120;8.764;2022-10-19T06:28:46;5.88;;;1.25;;
54919;SDS011;63804;53.120;8.764;2022-10-19T06:31:13;8.00;;;1.00;;
54919;SDS011;63804;53.120;8.764;2022-10-19T06:33:39;6.32;;;0.90;;
54919;SDS011;63804;53.120;8.764;2022-10-19T06:36:06;7.10;;;1.20;;
54919;SDS011;63804;53.120;8.764;2022-10-19T06:38:33;6.25;;;0.95;;
54919;SDS011;63804;53.120;8.764;2022-10-19T06:40:59;15.45;;;1.38;;
54919;SDS011;63804;53.120;8.764;2022-10-19T06:43:25;8.02;;;1.30;;
54919;SDS011;63804;53.120;8.764;2022-10-19T06:45:51;5.93;;;1.08;;
54919;SDS011;63804;53.120;8.764;2022-10-19T06:48:17;7.07;;;1.17;;
54919;SDS011;63804;53.120;8.764;2022-10-19T06:50:42;8.98;;;1.33;;
54919;SDS011;63804;53.120;8.764;2022-10-19T06:53:08;7.15;;;1.13;;
54919;SDS011;63804;53.120;8.764;2022-10-19T06:55:34;7.80;;;1.20;;
54919;SDS011;63804;53.120;8.764;2022-10-19T06:58:00;8.70;;;1.58;;
54919;SDS011;63804;53.120;8.764;2022-10-19T07:00:29;11.85;;;1.45;;
54919;SDS011;63804;53.120;8.764;2022-10-19T07:02:58;7.28;;;1.67;;
54919;SDS011;63804;53.120;8.764;2022-10-19T07:05:23;11.50;;;1.20;;
54919;SDS011;63804;53.120;8.764;2022-10-19T07:07:49;12.25;;;1.77;;
54919;SDS011;63804;53.120;8.764;2022-10-19T07:10:15;10.43;;;1.55;;
54919;SDS011;63804;53.120;8.764;2022-10-19T07:12:40;10.40;;;1.25;;
54919;SDS011;63804;53.120;8.764;2022-10-19T07:15:06;10.07;;;1.40;;
54919;SDS011;63804;53.120;8.764;2022-10-19T07:17:32;9.35;;;1.52;;
54919;SDS011;63804;53.120;8.764;2022-10-19T07:19:58;7.20;;;1.58;;
54919;SDS011;63804;53.120;8.764;2022-10-19T07:22:23;13.27;;;1.45;;
54919;SDS011;63804;53.120;8.764;2022-10-19T07:24:49;9.52;;;2.25;;
54919;SDS011;63804;53.120;8.764;2022-10-19T07:27:16;8.45;;;1.20;;
54919;SDS011;63804;53.120;8.764;2022-10-19T07:29:42;9.25;;;1.50;;
54919;SDS011;63804;53.120;8.764;2022-10-19T07:32:07;10.65;;;1.67;;
54919;SDS011;63804;53.120;8.764;2022-10-19T07:34:33;12.40;;;1.20;;
54919;SDS011;63804;53.120;8.764;2022-10-19T07:36:58;12.38;;;1.33;;
54919;SDS011;63804;53.120;8.764;2022-10-19T07:39:24;12.13;;;1.52;;
54919;SDS011;63804;53.120;8.764;2022-10-19T07:41:51;15.38;;;1.63;;
54919;SDS011;63804;53.120;8.764;2022-10-19T07:44:17;10.65;;;1.38;;
54919;SDS011;63804;53.120;8.764;2022-10-19T07:46:43;10.43;;;1.50;;
54919;SDS011;63804;53.120;8.764;2022-10-19T07:49:09;10.05;;;1.60;;
54919;SDS011;63804;53.120;8.764;2022-10-19T07:51:38;7.60;;;1.10;;
54919;SDS011;63804;53.120;8.764;2022-10-19T07:54:05;8.35;;;1.10;;
54919;SDS011;63804;53.120;8.764;2022-10-19T07:56:30;9.70;;;1.42;;
54919;SDS011;63804;53.120;8.764;2022-10-19T07:58:57;10.60;;;1.77;;
54919;SDS011;63804;53.120;8.764;2022-10-19T08:01:34;11.02;;;1.65;;
54919;SDS011;63804;53.120;8.764;2022-10-19T08:04:04;9.52;;;1.40;;
54919;SDS011;63804;53.120;8.764;2022-10-19T08:06:30;10.63;;;1.30;;
54919;SDS011;63804;53.120;8.764;2022-10-19T08:08:56;12.02;;;1.58;;
54919;SDS011;63804;53.120;8.764;2022-10-19T08:11:22;8.40;;;1.50;;
54919;SDS011;63804;53.120;8.764;2022-10-19T08:13:50;6.35;;;1.30;;
54919;SDS011;63804;53.120;8.764;2022-10-19T08:19:01;7.47;;;1.50;;
54919;SDS011;63804;53.120;8.764;2022-10-19T08:21:31;7.75;;;1.52;;
54919;SDS011;63804;53.120;8.764;2022-10-19T08:23:57;8.52;;;1.60;;
54919;SDS011;63804;53.120;8.764;2022-10-19T08:26:24;5.32;;;1.15;;
54919;SDS011;63804;53.120;8.764;2022-10-19T08:28:52;8.90;;;1.33;;
54919;SDS011;63804;53.120;8.764;2022-10-19T08:31:21;7.70;;;1.42;;
54919;SDS011;63804;53.120;8.764;2022-10-19T08:33:50;7.50;;;1.10;;
54919;SDS011;63804;53.120;8.764;2022-10-19T08:36:16;6.63;;;1.38;;
54919;SDS011;63804;53.120;8.764;2022-10-19T08:38:43;7.05;;;1.70;;
54919;SDS011;63804;53.120;8.764;2022-10-19T08:41:30;6.90;;;1.13;;
54919;SDS011;63804;53.120;8.764;2022-10-19T08:49:19;7.20;;;1.20;;
54919;SDS011;63804;53.120;8.764;2022-10-19T08:51:48;7.45;;;1.40;;
54919;SDS011;63804;53.120;8.764;2022-10-19T08:54:19;8.55;;;1.42;;
54919;SDS011;63804;53.120;8.764;2022-10-19T08:56:56;8.35;;;1.30;;
54919;SDS011;63804;53.120;8.764;2022-10-19T08:59:32;8.00;;;1.35;;
54919;SDS011;63804;53.120;8.764;2022-10-19T09:02:03;10.05;;;1.25;;
54919;SDS011;63804;53.120;8.764;2022-10-19T09:04:39;6.90;;;1.77;;
54919;SDS011;63804;53.120;8.764;2022-10-19T09:09:34;12.05;;;1.48;;
54919;SDS011;63804;53.120;8.764;2022-10-19T09:12:06;8.70;;;1.47;;
54919;SDS011;63804;53.120;8.764;2022-10-19T09:14:37;8.60;;;1.15;;
54919;SDS011;63804;53.120;8.764;2022-10-19T09:17:13;7.13;;;1.40;;
54919;SDS011;63804;53.120;8.764;2022-10-19T09:19:43;9.95;;;1.50;;
54919;SDS011;63804;53.120;8.764;2022-10-19T09:29:49;4.55;;;0.90;;
54919;SDS011;63804;53.120;8.764;2022-10-19T09:32:23;14.15;;;1.50;;
54919;SDS011;63804;53.120;8.764;2022-10-19T09:35:02;6.55;;;1.50;;
54919;SDS011;63804;53.120;8.764;2022-10-19T09:37:31;6.97;;;1.25;;
54919;SDS011;63804;53.120;8.764;2022-10-19T09:40:04;9.27;;;1.45;;
54919;SDS011;63804;53.120;8.764;2022-10-19T09:42:31;7.65;;;1.20;;
54919;SDS011;63804;53.120;8.764;2022-10-19T09:44:58;6.47;;;1.20;;
54919;SDS011;63804;53.120;8.764;2022-10-19T09:47:37;6.97;;;1.10;;
54919;SDS011;63804;53.120;8.764;2022-10-19T09:50:07;8.63;;;1.50;;
54919;SDS011;63804;53.120;8.764;2022-10-19T09:52:35;5.78;;;1.20;;
54919;SDS011;63804;53.120;8.764;2022-10-19T09:55:26;5.20;;;1.10;;
54919;SDS011;63804;53.120;8.764;2022-10-19T09:57:57;5.28;;;0.95;;
54919;SDS011;63804;53.120;8.764;2022-10-19T10:00:34;5.85;;;1.20;;
54919;SDS011;63804;53.120;8.764;2022-10-19T10:03:02;5.60;;;1.45;;
54919;SDS011;63804;53.120;8.764;2022-10-19T10:05:35;7.47;;;1.20;;
54919;SDS011;63804;53.120;8.764;2022-10-19T10:08:03;7.20;;;1.50;;
54919;SDS011;63804;53.120;8.764;2022-10-19T10:10:37;6.28;;;1.08;;
54919;SDS011;63804;53.120;8.764;2022-10-19T10:13:10;7.68;;;1.45;;
54919;SDS011;63804;53.120;8.764;2022-10-19T10:15:50;6.25;;;1.55;;
54919;SDS011;63804;53.120;8.764;2022-10-19T10:18:21;5.82;;;1.10;;
54919;SDS011;63804;53.120;8.764;2022-10-19T10:20:56;4.85;;;1.10;;
54919;SDS011;63804;53.120;8.764;2022-10-19T10:23:25;7.63;;;1.50;;
54919;SDS011;63804;53.120;8.764;2022-10-19T10:25:56;9.90;;;1.27;;
54919;SDS011;63804;53.120;8.764;2022-10-19T10:28:24;9.43;;;1.20;;
54919;SDS011;63804;53.120;8.764;2022-10-19T10:31:03;8.50;;;1.40;;
54919;SDS011;63804;53.120;8.764;2022-10-19T10:33:35;8.07;;;1.50;;
54919;SDS011;63804;53.120;8.764;2022-10-19T10:36:03;5.00;;;1.50;;
54919;SDS011;63804;53.120;8.764;2022-10-19T10:38:32;5.32;;;1.30;;
54919;SDS011;63804;53.120;8.764;2022-10-19T10:41:09;8.40;;;1.60;;
54919;SDS011;63804;53.120;8.764;2022-10-19T10:43:50;7.25;;;1.38;;
54919;SDS011;63804;53.120;8.764;2022-10-19T10:46:18;5.65;;;1.45;;
54919;SDS011;63804;53.120;8.764;2022-10-19T10:48:54;8.05;;;1.30;;
54919;SDS011;63804;53.120;8.764;2022-10-19T10:51:56;10.43;;;1.30;;
54919;SDS011;63804;53.120;8.764;2022-10-19T10:54:18;12.35;;;1.40;;
54919;SDS011;63804;53.120;8.764;2022-10-19T10:56:58;6.28;;;1.25;;
54919;SDS011;63804;53.120;8.764;2022-10-19T11:04:52;7.30;;;1.50;;
54919;SDS011;63804;53.120;8.764;2022-10-19T11:07:21;9.60;;;1.77;;
54919;SDS011;63804;53.120;8.764;2022-10-19T11:09:53;7.43;;;1.83;;
54919;SDS011;63804;53.120;8.764;2022-10-19T11:12:27;10.30;;;1.58;;
54919;SDS011;63804;53.120;8.764;2022-10-19T11:15:19;6.13;;;1.70;;
54919;SDS011;63804;53.120;8.764;2022-10-19T11:18:00;8.35;;;1.80;;
54919;SDS011;63804;53.120;8.764;2022-10-19T11:20:28;7.40;;;1.25;;
54919;SDS011;63804;53.120;8.764;2022-10-19T11:50:52;10.13;;;1.45;;
54919;SDS011;63804;53.120;8.764;2022-10-19T11:56:34;7.15;;;1.60;;
54919;SDS011;63804;53.120;8.764;2022-10-19T12:01:39;9.52;;;1.75;;
54919;SDS011;63804;53.120;8.764;2022-10-19T12:04:17;13.48;;;1.90;;
54919;SDS011;63804;53.120;8.764;2022-10-19T12:14:37;5.38;;;1.15;;
54919;SDS011;63804;53.120;8.764;2022-10-19T12:17:06;9.00;;;1.67;;
54919;SDS011;63804;53.120;8.764;2022-10-19T12:19:39;4.68;;;1.35;;
54919;SDS011;63804;53.120;8.764;2022-10-19T12:22:11;5.38;;;1.55;;
54919;SDS011;63804;53.120;8.764;2022-10-19T12:24:41;9.20;;;1.40;;
54919;SDS011;63804;53.120;8.764;2022-10-19T12:27:14;5.25;;;1.35;;
54919;SDS011;63804;53.120;8.764;2022-10-19T12:29:43;6.07;;;1.20;;
54919;SDS011;63804;53.120;8.764;2022-10-19T12:32:13;6.53;;;1.40;;
54919;SDS011;63804;53.120;8.764;2022-10-19T12:35:03;4.53;;;1.40;;
54919;SDS011;63804;53.120;8.764;2022-10-19T12:40:31;4.95;;;1.17;;
54919;SDS011;63804;53.120;8.764;2022-10-19T12:43:04;6.90;;;1.10;;
54919;SDS011;63804;53.120;8.764;2022-10-19T12:45:40;8.85;;;1.50;;
54919;SDS011;63804;53.120;8.764;2022-10-19T12:53:22;6.43;;;1.50;;
54919;SDS011;63804;53.120;8.764;2022-10-19T12:58:53;5.03;;;1.00;;
54919;SDS011;63804;53.120;8.764;2022-10-19T13:01:26;8.85;;;1.35;;
54919;SDS011;63804;53.120;8.764;2022-10-19T13:04:14;6.20;;;1.20;;
54919;SDS011;63804;53.120;8.764;2022-10-19T13:07:02;6.93;;;1.38;;
54919;SDS011;63804;53.120;8.764;2022-10-19T13:09:31;7.47;;;1.30;;
54919;SDS011;63804;53.120;8.764;2022-10-19T13:22:40;5.97;;;1.10;;
54919;SDS011;63804;53.120;8.764;2022-10-19T13:25:21;6.18;;;1.20;;
54919;SDS011;63804;53.120;8.764;2022-10-19T13:38:28;6.43;;;1.50;;
54919;SDS011;63804;53.120;8.764;2022-10-19T13:40:58;6.88;;;1.27;;
54919;SDS011;63804;53.120;8.764;2022-10-19T13:43:28;6.10;;;1.17;;
54919;SDS011;63804;53.120;8.764;2022-10-19T13:51:23;4.35;;;1.10;;
54919;SDS011;63804;53.120;8.764;2022-10-19T14:07:46;6.95;;;1.27;;
54919;SDS011;63804;53.120;8.764;2022-10-19T14:10:30;6.72;;;1.13;;
54919;SDS011;63804;53.120;8.764;2022-10-19T14:12:56;5.97;;;0.95;;
54919;SDS011;63804;53.120;8.764;2022-10-19T14:15:29;8.65;;;1.38;;
54919;SDS011;63804;53.120;8.764;2022-10-19T14:17:57;3.95;;;1.17;;
54919;SDS011;63804;53.120;8.764;2022-10-19T14:22:53;8.07;;;1.35;;
54919;SDS011;63804;53.120;8.764;2022-10-19T14:25:20;5.10;;;1.20;;
54919;SDS011;63804;53.120;8.764;2022-10-19T14:28:03;7.45;;;1.08;;
54919;SDS011;63804;53.120;8.764;2022-10-19T14:30:31;10.05;;;1.40;;
54919;SDS011;63804;53.120;8.764;2022-10-19T14:32:59;7.05;;;1.10;;
54919;SDS011;63804;53.120;8.764;2022-10-19T14:35:38;7.95;;;1.08;;
54919;SDS011;63804;53.120;8.764;2022-10-19T14:38:06;7.85;;;1.55;;
54919;SDS011;63804;53.120;8.764;2022-10-19T14:40:36;5.90;;;1.30;;
54919;SDS011;63804;53.120;8.764;2022-10-19T14:43:20;7.85;;;1.52;;
54919;SDS011;63804;53.120;8.764;2022-10-19T14:48:35;6.00;;;1.80;;
54919;SDS011;63804;53.120;8.764;2022-10-19T14:57:00;7.97;;;1.38;;
54919;SDS011;63804;53.120;8.764;2022-10-19T14:59:33;8.65;;;1.80;;
54919;SDS011;63804;53.120;8.764;2022-10-19T15:02:03;7.43;;;1.33;;
54919;SDS011;63804;53.120;8.764;2022-10-19T15:04:39;6.70;;;1.70;;
54919;SDS011;63804;53.120;8.764;2022-10-19T15:07:14;12.00;;;1.60;;
54919;SDS011;63804;53.120;8.764;2022-10-19T15:09:47;9.25;;;1.67;;
54919;SDS011;63804;53.120;8.764;2022-10-19T15:12:17;11.73;;;1.90;;
54919;SDS011;63804;53.120;8.764;2022-10-19T15:14:46;13.73;;;2.20;;
54919;SDS011;63804;53.120;8.764;2022-10-19T15:17:28;10.90;;;2.28;;
54919;SDS011;63804;53.120;8.764;2022-10-19T15:19:56;9.10;;;2.00;;
54919;SDS011;63804;53.120;8.764;2022-10-19T15:27:28;7.97;;;1.80;;
54919;SDS011;63804;53.120;8.764;2022-10-19T15:30:00;10.07;;;1.63;;
54919;SDS011;63804;53.120;8.764;2022-10-19T15:32:32;7.38;;;1.40;;
54919;SDS011;63804;53.120;8.764;2022-10-19T15:37:44;10.45;;;1.60;;
54919;SDS011;63804;53.120;8.764;2022-10-19T15:40:17;9.07;;;1.83;;
54919;SDS011;63804;53.120;8.764;2022-10-19T15:42:46;6.43;;;1.52;;
54919;SDS011;63804;53.120;8.764;2022-10-19T15:45:26;8.27;;;1.67;;
54919;SDS011;63804;53.120;8.764;2022-10-19T15:50:44;5.28;;;1.73;;
54919;SDS011;63804;53.120;8.764;2022-10-19T15:53:14;11.00;;;2.00;;
54919;SDS011;63804;53.120;8.764;2022-10-19T15:55:40;10.50;;;2.20;;
54919;SDS011;63804;53.120;8.764;2022-10-19T15:58:07;8.93;;;1.60;;
54919;SDS011;63804;53.120;8.764;2022-10-19T16:00:34;8.77;;;2.20;;
54919;SDS011;63804;53.120;8.764;2022-10-19T16:03:01;5.80;;;1.73;;
54919;SDS011;63804;53.120;8.764;2022-10-19T16:05:26;9.63;;;2.08;;
54919;SDS011;63804;53.120;8.764;2022-10-19T16:07:52;6.97;;;1.80;;
54919;SDS011;63804;53.120;8.764;2022-10-19T16:10:20;8.73;;;2.38;;
54919;SDS011;63804;53.120;8.764;2022-10-19T16:12:48;11.45;;;2.40;;
54919;SDS011;63804;53.120;8.764;2022-10-19T16:15:15;6.88;;;1.90;;
54919;SDS011;63804;53.120;8.764;2022-10-19T16:17:56;8.20;;;2.28;;
54919;SDS011;63804;53.120;8.764;2022-10-19T16:20:25;9.30;;;2.25;;
54919;SDS011;63804;53.120;8.764;2022-10-19T16:22:51;11.10;;;2.97;;
54919;SDS011;63804;53.120;8.764;2022-10-19T16:25:17;7.70;;;2.42;;
54919;SDS011;63804;53.120;8.764;2022-10-19T16:27:43;12.88;;;3.20;;
54919;SDS011;63804;53.120;8.764;2022-10-19T16:30:09;10.52;;;3.60;;
54919;SDS011;63804;53.120;8.764;2022-10-19T16:32:35;11.40;;;3.55;;
54919;SDS011;63804;53.120;8.764;2022-10-19T16:35:02;11.93;;;3.70;;
54919;SDS011;63804;53.120;8.764;2022-10-19T16:37:28;10.65;;;3.50;;
54919;SDS011;63804;53.120;8.764;2022-10-19T16:39:53;13.25;;;3.40;;
54919;SDS011;63804;53.120;8.764;2022-10-19T16:42:19;11.65;;;4.03;;
54919;SDS011;63804;53.120;8.764;2022-10-19T16:44:45;17.80;;;5.13;;
54919;SDS011;63804;53.120;8.764;2022-10-19T16:47:11;17.60;;;5.15;;
54919;SDS011;63804;53.120;8.764;2022-10-19T16:49:37;15.73;;;5.53;;
54919;SDS011;63804;53.120;8.764;2022-10-19T16:52:02;15.05;;;5.00;;
54919;SDS011;63804;53.120;8.764;2022-10-19T16:54:30;12.65;;;4.85;;
54919;SDS011;63804;53.120;8.764;2022-10-19T16:57:06;11.10;;;3.85;;
54919;SDS011;63804;53.120;8.764;2022-10-19T16:59:31;11.95;;;4.30;;
54919;SDS011;63804;53.120;8.764;2022-10-19T17:01:57;14.18;;;4.97;;
54919;SDS011;63804;53.120;8.764;2022-10-19T17:04:23;14.55;;;5.72;;
54919;SDS011;63804;53.120;8.764;2022-10-19T17:06:50;12.13;;;4.55;;
54919;SDS011;63804;53.120;8.764;2022-10-19T17:09:22;11.55;;;4.20;;
54919;SDS011;63804;53.120;8.764;2022-10-19T17:11:49;12.10;;;4.70;;
54919;SDS011;63804;53.120;8.764;2022-10-19T17:14:14;15.98;;;5.28;;
54919;SDS011;63804;53.120;8.764;2022-10-19T17:16:40;12.98;;;5.28;;
54919;SDS011;63804;53.120;8.764;2022-10-19T17:19:06;11.57;;;4.10;;
54919;SDS011;63804;53.120;8.764;2022-10-19T17:21:34;10.27;;;3.85;;
54919;SDS011;63804;53.120;8.764;2022-10-19T17:24:10;12.95;;;4.18;;
54919;SDS011;63804;53.120;8.764;2022-10-19T17:26:38;14.35;;;4.45;;
54919;SDS011;63804;53.120;8.764;2022-10-19T17:29:06;15.63;;;6.00;;
54919;SDS011;63804;53.120;8.764;2022-10-19T17:31:33;14.40;;;4.80;;
54919;SDS011;63804;53.120;8.764;2022-10-19T17:34:00;12.00;;;4.38;;
54919;SDS011;63804;53.120;8.764;2022-10-19T17:36:28;13.82;;;5.03;;
54919;SDS011;63804;53.120;8.764;2022-10-19T17:38:55;12.13;;;4.53;;